createdAt,value
2022-12-27T00:02:42.338Z,100.00
2022-12-27T00:07:44.567Z,100.00
2022-12-27T00:12:50.438Z,100.00
2022-12-27T00:17:52.238Z,100.00
2022-12-27T00:22:53.910Z,100.00
2022-12-27T00:27:55.693Z,100.00
2022-12-27T00:32:58.059Z,100.00
2022-12-27T00:37:59.911Z,100.00
2022-12-27T00:43:01.606Z,100.00
2022-12-27T00:48:07.099Z,100.00
2022-12-27T00:53:10.269Z,100.00
2022-12-27T00:58:12.089Z,100.00
2022-12-27T01:03:14.870Z,100.00
2022-12-27T01:08:16.589Z,100.00
2022-12-27T01:13:18.304Z,100.00
2022-12-27T01:18:20.172Z,100.00
2022-12-27T01:23:21.988Z,100.00
2022-12-27T01:28:23.722Z,100.00
2022-12-27T01:33:25.420Z,100.00
2022-12-27T01:38:27.091Z,100.00
2022-12-27T01:43:38.889Z,100.00
2022-12-27T01:48:41.233Z,100.00
2022-12-27T01:53:47.802Z,100.00
2022-12-27T01:59:01.394Z,100.00
2022-12-27T02:04:14.917Z,100.00
2022-12-27T02:09:21.055Z,100.00
2022-12-27T02:14:42.672Z,100.00
2022-12-27T02:20:03.015Z,100.00
2022-12-27T02:25:28.199Z,100.00
2022-12-27T02:30:33.756Z,100.00
2022-12-27T02:35:44.089Z,100.00
2022-12-27T02:41:04.828Z,100.00
2022-12-27T02:46:36.316Z,100.00
2022-12-27T02:52:13.554Z,100.00
2022-12-27T02:57:18.294Z,100.00
2022-12-27T03:02:54.391Z,100.00
2022-12-27T03:08:11.681Z,100.00
2022-12-27T03:13:47.472Z,100.00
2022-12-27T03:19:02.755Z,100.00
2022-12-27T03:24:25.317Z,100.00
2022-12-27T03:29:46.435Z,100.00
2022-12-27T03:34:55.029Z,100.00
2022-12-27T03:40:03.630Z,100.00
2022-12-27T03:45:06.221Z,100.00
2022-12-27T03:50:16.094Z,100.00
2022-12-27T03:55:18.020Z,100.00
2022-12-27T04:00:20.002Z,100.00
2022-12-27T04:05:23.163Z,100.00
2022-12-27T04:10:43.906Z,100.00
2022-12-27T04:16:04.498Z,100.00
2022-12-27T04:21:25.061Z,100.00
2022-12-27T04:26:45.575Z,100.00
2022-12-27T04:32:06.363Z,100.00
2022-12-27T04:37:10.081Z,100.00
2022-12-27T04:42:30.889Z,100.00
2022-12-27T04:47:51.945Z,100.00
2022-12-27T04:53:12.662Z,100.00
2022-12-27T04:58:14.524Z,100.00
2022-12-27T05:03:19.118Z,100.00
2022-12-27T05:08:40.044Z,100.00
2022-12-27T05:14:00.202Z,100.00
2022-12-27T05:19:02.352Z,100.00
2022-12-27T05:24:23.736Z,100.00
2022-12-27T05:29:25.430Z,100.00
2022-12-27T05:34:27.141Z,100.00
2022-12-27T05:39:28.867Z,100.00
2022-12-27T05:44:30.539Z,100.00
2022-12-27T05:49:32.224Z,100.00
2022-12-27T05:54:33.907Z,100.00
2022-12-27T05:59:35.663Z,100.00
2022-12-27T06:04:37.533Z,100.00
2022-12-27T06:09:40.339Z,100.00
2022-12-27T06:14:42.198Z,100.00
2022-12-27T06:19:43.929Z,100.00
2022-12-27T06:24:45.655Z,100.00
2022-12-27T06:29:47.556Z,100.00
2022-12-27T06:34:49.290Z,100.00
2022-12-27T06:39:51.338Z,100.00
2022-12-27T06:44:53.148Z,100.00
2022-12-27T06:49:55.913Z,100.00
2022-12-27T06:54:57.764Z,100.00
2022-12-27T06:59:59.646Z,100.00
2022-12-27T07:05:01.535Z,100.00
2022-12-27T07:10:03.980Z,100.00
2022-12-27T07:15:06.805Z,100.00
2022-12-27T07:20:09.286Z,100.00
2022-12-27T07:25:11.011Z,100.00
2022-12-27T07:30:12.977Z,100.00
2022-12-27T07:35:14.901Z,100.00
2022-12-27T07:40:16.801Z,100.00
2022-12-27T07:45:19.851Z,100.00
2022-12-27T07:50:21.871Z,100.00
2022-12-27T07:55:23.667Z,100.00
2022-12-27T08:00:25.399Z,100.00
2022-12-27T08:05:28.066Z,100.00
2022-12-27T08:10:29.929Z,100.00
2022-12-27T08:15:31.951Z,100.00
2022-12-27T08:20:33.730Z,100.00
2022-12-27T08:25:35.438Z,100.00
2022-12-27T08:30:39.312Z,100.00
2022-12-27T08:35:52.837Z,100.00
2022-12-27T08:40:55.453Z,100.00
2022-12-27T08:46:05.624Z,100.00
2022-12-27T08:51:12.612Z,100.00
2022-12-27T08:56:16.475Z,100.00
2022-12-27T09:01:19.075Z,100.00
2022-12-27T09:06:23.610Z,100.00
2022-12-27T09:11:28.426Z,100.00
2022-12-27T09:16:30.634Z,100.00
2022-12-27T09:21:34.127Z,100.00
2022-12-27T09:26:36.103Z,100.00
2022-12-27T09:31:37.850Z,100.00
2022-12-27T09:36:40.745Z,100.00
2022-12-27T09:47:53.651Z,99.61
2022-12-27T09:53:17.634Z,98.85
2022-12-27T09:58:32.887Z,99.11
2022-12-27T10:03:34.808Z,98.28
2022-12-27T10:08:50.324Z,97.28
2022-12-27T10:14:01.919Z,97.18
2022-12-27T10:19:18.664Z,96.49
2022-12-27T10:24:30.508Z,95.42
2022-12-27T10:29:33.173Z,95.60
2022-12-27T10:34:34.940Z,95.88
2022-12-27T10:39:38.699Z,92.47
2022-12-27T10:44:40.590Z,93.69
2022-12-27T10:50:01.013Z,91.80
2022-12-27T10:55:02.660Z,92.30
2022-12-27T11:00:52.445Z,91.83
2022-12-27T11:06:01.045Z,91.62
2022-12-27T11:11:26.800Z,91.03
2022-12-27T11:16:31.470Z,87.82
2022-12-27T11:21:38.696Z,88.39
2022-12-27T11:26:53.691Z,89.22
2022-12-27T11:31:57.134Z,89.28
2022-12-27T11:37:16.184Z,88.04
2022-12-27T11:42:32.595Z,87.86
2022-12-27T11:47:53.513Z,86.06
2022-12-27T11:53:20.180Z,83.77
2022-12-27T11:58:46.983Z,84.01
2022-12-27T12:04:07.703Z,83.18
2022-12-27T12:09:30.204Z,80.89
2022-12-27T12:14:50.732Z,80.85
2022-12-27T12:20:17.497Z,81.33
2022-12-27T12:25:47.757Z,82.08
2022-12-27T12:31:15.147Z,81.59
2022-12-27T12:36:54.423Z,81.13
2022-12-27T12:42:19.899Z,80.69
2022-12-27T12:47:59.223Z,80.67
2022-12-27T12:53:43.350Z,81.16
2022-12-27T12:59:16.499Z,80.39
2022-12-27T13:04:41.320Z,79.81
2022-12-27T13:09:58.292Z,80.61
2022-12-27T13:15:09.095Z,80.22
2022-12-27T13:20:41.478Z,80.53
2022-12-27T13:25:50.228Z,80.71
2022-12-27T13:31:24.701Z,80.07
2022-12-27T13:36:41.014Z,80.38
2022-12-27T13:41:53.980Z,81.10
2022-12-27T13:47:07.906Z,81.20
2022-12-27T13:52:21.938Z,81.95
2022-12-27T13:57:58.123Z,82.25
2022-12-27T14:03:14.534Z,82.22
2022-12-27T14:08:19.104Z,82.18
2022-12-27T14:13:34.644Z,82.22
2022-12-27T14:18:42.752Z,82.53
2022-12-27T14:24:09.544Z,82.82
2022-12-27T14:29:45.986Z,82.71
2022-12-27T14:35:00.180Z,82.57
2022-12-27T14:40:37.456Z,82.83
2022-12-27T14:45:58.127Z,82.50
2022-12-27T14:57:15.221Z,82.81
2022-12-27T15:02:39.067Z,82.74
2022-12-27T15:08:02.347Z,82.65
2022-12-27T15:13:19.115Z,82.84
2022-12-27T15:18:26.956Z,83.12
2022-12-27T15:23:40.805Z,83.29
2022-12-27T15:29:14.148Z,82.59
2022-12-27T15:34:34.624Z,82.93
2022-12-27T15:39:36.357Z,82.55
2022-12-27T15:45:06.494Z,82.48
2022-12-27T15:50:26.907Z,83.20
2022-12-27T15:55:29.752Z,83.53
2022-12-27T16:00:34.292Z,82.86
2022-12-27T16:05:44.786Z,82.92
2022-12-27T16:10:49.378Z,83.24
2022-12-27T16:15:55.272Z,83.44
2022-12-27T16:20:58.337Z,83.96
2022-12-27T16:26:02.043Z,84.13
2022-12-27T16:31:11.696Z,83.68
2022-12-27T16:36:20.702Z,83.61
2022-12-27T16:41:56.966Z,83.67
2022-12-27T16:47:27.405Z,84.01
2022-12-27T16:53:10.990Z,84.56
2022-12-27T16:58:31.129Z,84.32
2022-12-27T17:03:35.763Z,84.52
2022-12-27T17:08:37.499Z,84.29
2022-12-27T17:13:48.671Z,84.27
2022-12-27T17:19:02.698Z,84.34
2022-12-27T17:24:15.950Z,83.53
2022-12-27T17:29:46.733Z,83.82
2022-12-27T17:34:54.951Z,83.85
2022-12-27T17:40:24.776Z,83.94
2022-12-27T17:46:07.640Z,83.89
2022-12-27T17:51:13.048Z,84.53
2022-12-27T17:56:37.422Z,84.95
2022-12-27T18:01:51.918Z,85.02
2022-12-27T18:06:59.550Z,85.40
2022-12-27T18:12:11.264Z,85.41
2022-12-27T18:17:32.898Z,85.62
2022-12-27T18:22:34.769Z,85.89
2022-12-27T18:27:36.519Z,86.21
2022-12-27T18:32:38.249Z,86.60
2022-12-27T18:37:40.690Z,86.89
2022-12-27T18:42:49.274Z,87.16
2022-12-27T18:47:54.163Z,87.37
2022-12-27T18:53:03.452Z,87.66
2022-12-27T18:58:36.237Z,87.92
2022-12-27T19:03:40.875Z,88.25
2022-12-27T19:08:53.095Z,88.66
2022-12-27T19:14:01.569Z,89.02
2022-12-27T19:19:10.466Z,89.14
2022-12-27T19:24:24.307Z,89.23
2022-12-27T19:29:29.118Z,89.55
2022-12-27T19:34:38.857Z,89.67
2022-12-27T19:39:42.491Z,90.09
2022-12-27T19:44:44.535Z,90.03
2022-12-27T19:49:46.313Z,90.11
2022-12-27T19:54:49.885Z,90.40
2022-12-27T19:59:51.654Z,90.52
2022-12-27T20:04:54.588Z,90.71
2022-12-27T20:09:56.454Z,91.30
2022-12-27T20:14:58.204Z,91.11
2022-12-27T20:19:59.981Z,91.47
2022-12-27T20:25:02.449Z,91.77
2022-12-27T20:30:05.243Z,92.00
2022-12-27T20:35:09.763Z,92.23
2022-12-27T20:40:11.614Z,92.28
2022-12-27T20:45:13.378Z,92.40
2022-12-27T20:50:15.122Z,92.73
2022-12-27T20:55:16.942Z,92.68
2022-12-27T21:00:18.650Z,92.82
2022-12-27T21:05:20.415Z,93.00
2022-12-27T21:10:22.096Z,93.23
2022-12-27T21:15:24.119Z,93.48
2022-12-27T21:20:25.869Z,93.26
2022-12-27T21:25:27.602Z,93.23
2022-12-27T21:30:29.385Z,93.07
2022-12-27T21:35:31.138Z,93.11
2022-12-27T21:40:32.953Z,92.93
2022-12-27T21:45:35.411Z,93.00
2022-12-27T21:50:37.652Z,92.95
2022-12-27T21:55:39.395Z,92.90
2022-12-27T22:00:41.088Z,92.78
2022-12-27T22:05:42.863Z,92.66
2022-12-27T22:10:45.352Z,92.59
2022-12-27T22:16:02.412Z,92.60
2022-12-27T22:21:07.001Z,92.49
2022-12-27T22:26:11.923Z,92.30
2022-12-27T22:31:19.657Z,92.34
2022-12-27T22:36:23.842Z,92.26
2022-12-27T22:41:31.392Z,92.43
2022-12-27T22:51:56.141Z,92.37
2022-12-27T22:56:57.989Z,92.45
2022-12-27T23:02:00.524Z,92.49
2022-12-27T23:07:02.379Z,92.49
2022-12-27T23:12:04.445Z,92.71
2022-12-27T23:17:06.332Z,92.66
2022-12-27T23:22:08.004Z,92.70
2022-12-27T23:27:09.740Z,92.71
2022-12-27T23:32:11.448Z,92.76
2022-12-27T23:37:13.235Z,92.87
2022-12-27T23:42:14.995Z,92.90
2022-12-27T23:47:16.817Z,92.90
2022-12-27T23:52:18.569Z,93.03
2022-12-27T23:57:22.781Z,92.99
